createdAt,value
2024-03-10T00:00:40.839Z,99324.25
2024-03-10T00:03:08.637Z,99316.41
2024-03-10T00:05:36.209Z,99320.00
2024-03-10T00:08:03.253Z,99324.47
2024-03-10T00:10:30.253Z,99319.91
2024-03-10T00:12:57.117Z,99325.47
2024-03-10T00:15:24.273Z,99321.25
2024-03-10T00:17:52.166Z,99317.06
2024-03-10T00:20:21.858Z,99324.19
2024-03-10T00:22:52.009Z,99325.88
2024-03-10T00:25:19.769Z,99316.91
2024-03-10T00:27:46.811Z,99320.28
2024-03-10T00:30:14.456Z,99322.09
2024-03-10T00:32:41.339Z,99325.22
2024-03-10T00:35:08.468Z,99324.06
2024-03-10T00:37:35.927Z,99312.09
2024-03-10T00:40:06.825Z,99314.53
2024-03-10T00:42:33.694Z,99310.06
2024-03-10T00:45:00.478Z,99307.81
2024-03-10T00:47:27.519Z,99316.00
2024-03-10T00:49:54.407Z,99321.41
2024-03-10T00:52:21.139Z,99314.94
2024-03-10T00:54:47.918Z,99324.56
2024-03-10T00:57:15.721Z,99322.28
2024-03-10T00:59:43.648Z,99322.75
2024-03-10T01:02:10.619Z,99323.59
2024-03-10T01:04:37.459Z,99322.41
2024-03-10T01:07:05.001Z,99315.78
2024-03-10T01:09:31.855Z,99318.44
2024-03-10T01:11:58.714Z,99325.44
2024-03-10T01:14:25.818Z,99322.78
2024-03-10T01:16:52.615Z,99325.69
2024-03-10T01:19:19.556Z,99319.91
2024-03-10T01:21:46.927Z,99321.72
2024-03-10T01:24:14.435Z,99315.78
2024-03-10T01:26:41.198Z,99308.19
2024-03-10T01:29:08.725Z,99305.34
2024-03-10T01:31:35.555Z,99294.59
2024-03-10T01:34:02.437Z,99301.91
2024-03-10T01:36:29.767Z,99291.09
2024-03-10T01:38:56.881Z,99281.31
2024-03-10T01:41:23.836Z,99279.06
2024-03-10T01:43:52.191Z,99277.47
2024-03-10T01:46:19.282Z,99273.75
2024-03-10T01:48:46.091Z,99267.03
2024-03-10T01:51:16.655Z,99267.16
2024-03-10T01:53:43.986Z,99266.19
2024-03-10T01:56:15.020Z,99260.66
2024-03-10T01:58:46.067Z,99249.66
2024-03-10T02:01:15.278Z,99254.75
2024-03-10T02:03:44.376Z,99241.47
2024-03-10T02:06:11.174Z,99233.91
2024-03-10T02:08:39.164Z,99228.63
2024-03-10T02:11:12.209Z,99234.38
2024-03-10T02:13:42.262Z,99235.91
2024-03-10T02:16:12.364Z,99231.00
2024-03-10T02:18:39.690Z,99227.38
2024-03-10T02:21:10.592Z,99220.00
2024-03-10T02:23:41.959Z,99216.78
2024-03-10T02:26:10.279Z,99222.81
2024-03-10T02:28:47.800Z,99221.00
2024-03-10T02:31:33.711Z,99213.69
2024-03-10T02:34:19.140Z,99209.56
2024-03-10T02:37:04.542Z,99205.22
2024-03-10T02:39:49.994Z,99202.69
2024-03-10T02:42:35.383Z,99197.97
2024-03-10T02:45:20.708Z,99197.50
2024-03-10T02:47:47.545Z,99194.00
2024-03-10T02:50:14.447Z,99189.91
2024-03-10T02:52:41.281Z,99188.03
2024-03-10T02:55:10.107Z,99193.31
2024-03-10T02:57:36.848Z,99185.94
2024-03-10T03:00:03.982Z,99190.66
2024-03-10T03:02:31.289Z,99190.06
2024-03-10T03:04:58.416Z,99186.84
2024-03-10T03:07:25.354Z,99183.22
2024-03-10T03:09:52.123Z,99173.59
2024-03-10T03:12:19.004Z,99175.84
2024-03-10T03:14:45.834Z,99172.97
2024-03-10T03:17:12.590Z,99180.81
2024-03-10T03:19:39.492Z,99179.25
2024-03-10T03:22:06.532Z,99172.16
2024-03-10T03:24:33.306Z,99166.75
2024-03-10T03:27:00.204Z,99162.56
2024-03-10T03:29:27.258Z,99157.75
2024-03-10T03:31:54.112Z,99152.66
2024-03-10T03:34:21.312Z,99153.28
2024-03-10T03:36:48.492Z,99150.97
2024-03-10T03:39:16.658Z,99138.44
2024-03-10T03:41:43.528Z,99135.41
2024-03-10T03:44:10.290Z,99134.88
2024-03-10T03:46:37.168Z,99134.63
2024-03-10T03:49:04.148Z,99135.06
2024-03-10T03:51:30.857Z,99134.63
2024-03-10T03:53:57.963Z,99131.84
2024-03-10T03:56:24.793Z,99141.03
2024-03-10T03:58:51.690Z,99135.38
2024-03-10T04:01:19.114Z,99135.84
2024-03-10T04:03:45.879Z,99134.41
2024-03-10T04:06:12.738Z,99136.06
2024-03-10T04:08:39.508Z,99127.66
2024-03-10T04:11:06.309Z,99135.03
2024-03-10T04:13:33.150Z,99126.63
2024-03-10T04:15:59.877Z,99123.59
2024-03-10T04:18:27.949Z,99117.47
2024-03-10T04:20:54.869Z,99106.50
2024-03-10T04:23:23.161Z,99107.44
2024-03-10T04:25:49.943Z,99110.59
2024-03-10T04:28:17.262Z,99109.88
2024-03-10T04:30:43.984Z,99111.31
2024-03-10T04:33:10.817Z,99105.56
2024-03-10T04:35:39.599Z,99104.69
2024-03-10T04:38:06.558Z,99098.09
2024-03-10T04:40:33.316Z,99095.19
2024-03-10T04:43:00.064Z,99087.63
2024-03-10T04:45:27.255Z,99093.28
2024-03-10T04:47:54.167Z,99090.53
2024-03-10T04:50:22.574Z,99092.56
2024-03-10T04:52:49.472Z,99087.25
2024-03-10T04:55:16.364Z,99083.06
2024-03-10T04:57:43.196Z,99085.84
2024-03-10T05:00:13.727Z,99077.53
2024-03-10T05:02:40.453Z,99071.16
2024-03-10T05:05:08.587Z,99067.81
2024-03-10T05:07:35.384Z,99066.09
2024-03-10T05:10:02.216Z,99050.97
2024-03-10T05:12:29.502Z,99061.41
2024-03-10T05:14:56.246Z,99055.91
2024-03-10T05:17:23.064Z,99049.66
2024-03-10T05:19:49.940Z,99050.00
2024-03-10T05:22:18.521Z,99055.31
2024-03-10T05:24:45.293Z,99054.13
2024-03-10T05:27:12.177Z,99057.59
2024-03-10T05:29:38.929Z,99062.06
2024-03-10T05:32:06.089Z,99064.81
2024-03-10T05:34:33.834Z,99076.25
2024-03-10T05:37:00.879Z,99083.84
2024-03-10T05:39:28.982Z,99093.59
2024-03-10T05:41:55.896Z,99092.03
2024-03-10T05:44:22.742Z,99089.50
2024-03-10T05:46:49.758Z,99094.31
2024-03-10T05:49:16.490Z,99089.50
2024-03-10T05:51:43.271Z,99104.69
2024-03-10T05:54:10.679Z,99098.75
2024-03-10T05:56:37.593Z,99103.47
2024-03-10T05:59:04.631Z,99106.84
2024-03-10T06:01:31.540Z,99115.00
2024-03-10T06:03:58.333Z,99118.59
2024-03-10T06:06:25.042Z,99108.41
2024-03-10T06:08:51.840Z,99119.44
2024-03-10T06:11:20.308Z,99122.09
2024-03-10T06:13:47.456Z,99118.25
2024-03-10T06:16:14.369Z,99120.31
2024-03-10T06:18:57.245Z,99124.63
2024-03-10T06:21:45.238Z,99118.25
2024-03-10T06:24:31.760Z,99120.28
2024-03-10T06:26:59.382Z,99109.47
2024-03-10T06:29:26.386Z,99119.22
2024-03-10T06:31:53.399Z,99107.44
2024-03-10T06:34:23.313Z,99111.16
2024-03-10T06:36:50.592Z,99116.22
2024-03-10T06:39:21.105Z,99122.72
2024-03-10T06:41:48.432Z,99130.50
2024-03-10T06:44:20.672Z,99132.94
2024-03-10T06:46:47.514Z,99123.41
2024-03-10T06:49:15.958Z,99123.91
2024-03-10T06:51:42.975Z,99127.50
2024-03-10T06:54:09.767Z,99117.91
2024-03-10T06:56:38.015Z,99114.03
2024-03-10T06:59:05.099Z,99108.75
2024-03-10T07:01:32.485Z,99111.50
2024-03-10T07:03:59.933Z,99104.66
2024-03-10T07:06:28.438Z,99131.34
2024-03-10T07:08:55.806Z,99143.88
2024-03-10T07:11:23.551Z,99135.47
2024-03-10T07:13:50.539Z,99141.81
2024-03-10T07:16:17.460Z,99141.81
2024-03-10T07:18:44.302Z,99144.09
2024-03-10T07:21:11.650Z,99147.97
2024-03-10T07:23:38.491Z,99144.09
2024-03-10T07:26:05.342Z,99129.66
2024-03-10T07:28:32.986Z,99132.44
2024-03-10T07:31:01.176Z,99141.09
2024-03-10T07:33:28.292Z,99137.63
2024-03-10T07:35:55.132Z,99147.38
2024-03-10T07:38:22.096Z,99145.31
2024-03-10T07:40:54.295Z,99152.16
2024-03-10T07:43:24.343Z,99140.75
2024-03-10T07:45:51.740Z,99146.63
2024-03-10T07:48:18.637Z,99141.22
2024-03-10T07:50:45.494Z,99131.22
2024-03-10T07:53:12.297Z,99137.97
2024-03-10T07:55:39.112Z,99134.13
2024-03-10T07:58:08.690Z,99140.63
2024-03-10T08:00:38.649Z,99130.88
2024-03-10T08:03:05.808Z,99128.91
2024-03-10T08:05:32.693Z,99129.38
2024-03-10T08:07:59.523Z,99125.81
2024-03-10T08:10:26.998Z,99126.66
2024-03-10T08:12:53.758Z,99121.34
2024-03-10T08:15:21.232Z,99122.91
2024-03-10T08:17:48.293Z,99123.25
2024-03-10T08:20:16.659Z,99122.41
2024-03-10T08:22:44.567Z,99120.47
2024-03-10T08:25:14.307Z,99128.44
2024-03-10T08:27:41.944Z,99127.94
2024-03-10T08:30:11.766Z,99130.94
2024-03-10T08:32:39.416Z,99133.72
2024-03-10T08:35:14.257Z,99128.53
2024-03-10T08:37:47.008Z,99134.44
2024-03-10T08:40:17.355Z,99138.28
2024-03-10T08:42:44.638Z,99135.00
2024-03-10T08:45:13.134Z,99135.91
2024-03-10T08:47:40.765Z,99141.38
2024-03-10T08:50:11.995Z,99152.44
2024-03-10T08:52:40.310Z,99157.56
2024-03-10T08:55:08.815Z,99164.28
2024-03-10T08:57:37.422Z,99175.47
2024-03-10T09:00:05.859Z,99174.31
2024-03-10T09:02:33.214Z,99172.97
2024-03-10T09:05:01.021Z,99167.72
2024-03-10T09:07:29.795Z,99160.94
2024-03-10T09:09:56.562Z,99163.16
2024-03-10T09:12:23.501Z,99173.41
2024-03-10T09:14:51.368Z,99155.97
2024-03-10T09:17:19.790Z,99149.19
2024-03-10T09:19:47.587Z,99136.56
2024-03-10T09:22:15.098Z,99138.97
2024-03-10T09:24:44.165Z,99127.28
2024-03-10T09:27:11.376Z,99114.78
2024-03-10T09:29:38.913Z,99115.09
2024-03-10T09:32:07.931Z,99110.25
2024-03-10T09:34:38.190Z,99117.00
2024-03-10T09:37:08.212Z,99122.59
2024-03-10T09:39:36.268Z,99119.38
2024-03-10T09:42:05.651Z,99098.13
2024-03-10T09:44:34.239Z,99085.16
2024-03-10T09:47:02.397Z,99084.91
2024-03-10T09:49:29.305Z,99087.72
2024-03-10T09:51:58.658Z,99083.50
2024-03-10T09:54:26.987Z,99075.97
2024-03-10T09:56:54.281Z,99070.78
2024-03-10T09:59:45.162Z,99054.16
2024-03-10T10:02:33.536Z,99071.78
2024-03-10T10:05:04.281Z,99074.56
2024-03-10T10:07:31.228Z,99071.91
2024-03-10T10:09:59.720Z,99076.66
2024-03-10T10:12:27.983Z,99079.59
2024-03-10T10:14:55.254Z,99075.81
2024-03-10T10:17:23.832Z,99070.78
2024-03-10T10:19:52.426Z,99076.66
2024-03-10T10:22:22.206Z,99073.97
2024-03-10T10:25:07.955Z,99082.25
2024-03-10T10:27:50.672Z,99084.63
2024-03-10T10:30:23.937Z,99078.16
2024-03-10T10:33:04.753Z,99080.66
2024-03-10T10:35:35.981Z,99071.84
2024-03-10T10:38:12.890Z,99071.81
2024-03-10T10:40:56.023Z,99070.53
2024-03-10T10:43:22.941Z,99073.56
2024-03-10T10:45:50.245Z,99078.81
2024-03-10T10:48:17.713Z,99091.78
2024-03-10T10:50:44.975Z,99084.47
2024-03-10T10:53:13.723Z,99078.22
2024-03-10T10:55:41.946Z,99073.94
2024-03-10T10:58:13.282Z,99074.97
2024-03-10T11:00:44.348Z,99072.69
2024-03-10T11:03:16.388Z,99063.06
2024-03-10T11:06:03.480Z,99054.97
2024-03-10T11:08:38.057Z,99063.47
2024-03-10T11:11:05.432Z,99063.31
2024-03-10T11:13:35.864Z,99074.28
2024-03-10T11:16:15.869Z,99061.72
2024-03-10T11:18:43.591Z,99059.75
2024-03-10T11:21:21.492Z,99055.78
2024-03-10T11:23:50.747Z,99052.41
2024-03-10T11:26:25.545Z,99057.88
2024-03-10T11:29:01.606Z,99056.00
2024-03-10T11:31:28.367Z,99048.84
2024-03-10T11:33:57.700Z,99053.56
2024-03-10T11:36:25.464Z,99054.19
2024-03-10T11:38:55.907Z,99049.06
2024-03-10T11:41:24.982Z,99039.50
2024-03-10T11:43:55.059Z,99032.31
2024-03-10T11:46:37.254Z,99047.16
2024-03-10T11:49:04.117Z,99037.19
2024-03-10T11:51:33.017Z,99031.50
2024-03-10T11:54:00.961Z,99030.19
2024-03-10T11:56:27.834Z,99035.63
2024-03-10T11:58:59.321Z,99037.59
2024-03-10T12:01:30.510Z,99025.50
2024-03-10T12:03:59.648Z,99022.50
2024-03-10T12:06:28.389Z,99016.13
2024-03-10T12:08:55.624Z,99018.78
2024-03-10T12:11:27.408Z,99008.38
2024-03-10T12:13:54.759Z,99013.94
2024-03-10T12:16:23.693Z,99003.25
2024-03-10T12:18:51.355Z,99018.78
2024-03-10T12:21:20.183Z,99012.63
2024-03-10T12:23:47.714Z,99019.16
2024-03-10T12:26:16.123Z,99013.50
2024-03-10T12:28:44.939Z,99012.59
2024-03-10T12:31:16.068Z,99015.00
2024-03-10T12:33:47.542Z,99024.38
2024-03-10T12:36:14.526Z,99030.56
2024-03-10T12:38:42.148Z,99019.88
2024-03-10T12:41:09.798Z,99016.50
2024-03-10T12:43:38.220Z,99013.53
2024-03-10T12:46:05.935Z,99008.34
2024-03-10T12:48:35.858Z,99006.69
2024-03-10T12:51:07.421Z,99003.38
2024-03-10T12:53:35.043Z,99001.06
2024-03-10T12:56:21.177Z,99001.19
2024-03-10T12:58:48.320Z,98994.38
2024-03-10T13:01:18.298Z,98997.91
2024-03-10T13:03:45.891Z,99011.00
2024-03-10T13:06:16.340Z,99009.03
2024-03-10T13:08:45.148Z,99015.25
2024-03-10T13:11:15.229Z,99014.09
2024-03-10T13:13:42.988Z,99003.06
2024-03-10T13:16:10.585Z,99002.38
2024-03-10T13:18:37.503Z,98990.50
2024-03-10T13:21:04.521Z,98981.25
2024-03-10T13:23:31.602Z,98981.38
2024-03-10T13:25:58.473Z,98987.88
2024-03-10T13:28:25.338Z,98983.13
2024-03-10T13:30:52.177Z,98982.84
2024-03-10T13:33:20.113Z,98975.03
2024-03-10T13:35:47.385Z,98970.84
2024-03-10T13:38:14.323Z,98960.59
2024-03-10T13:40:41.083Z,98962.31
2024-03-10T13:43:08.171Z,98958.13
2024-03-10T13:45:39.706Z,98962.50
2024-03-10T13:48:10.104Z,98961.88
2024-03-10T13:50:37.658Z,98968.06
2024-03-10T13:53:06.753Z,98973.94
2024-03-10T13:55:34.078Z,98966.75
2024-03-10T13:58:01.087Z,98965.59
2024-03-10T14:00:27.924Z,98977.97
2024-03-10T14:02:56.063Z,98964.28
2024-03-10T14:05:23.766Z,98963.75
2024-03-10T14:07:50.667Z,98971.28
2024-03-10T14:10:20.814Z,98971.94
2024-03-10T14:12:47.684Z,98975.63
2024-03-10T14:15:16.868Z,98984.00
2024-03-10T14:17:46.863Z,98972.63
2024-03-10T14:20:15.703Z,98980.97
2024-03-10T14:22:47.409Z,98978.81
2024-03-10T14:25:14.620Z,98978.28
2024-03-10T14:27:46.488Z,98973.38
2024-03-10T14:30:14.497Z,98967.97
2024-03-10T14:32:42.115Z,98958.03
2024-03-10T14:35:10.724Z,98952.19
2024-03-10T14:37:41.286Z,98958.09
2024-03-10T14:40:16.592Z,98951.63
2024-03-10T14:42:43.881Z,98955.69
2024-03-10T14:45:11.813Z,98952.22
2024-03-10T14:47:39.632Z,98948.38
2024-03-10T14:50:07.287Z,98946.72
2024-03-10T14:52:34.108Z,98945.72
2024-03-10T14:55:05.702Z,98946.91
2024-03-10T14:57:32.870Z,98941.22
2024-03-10T15:00:01.482Z,98934.34
2024-03-10T15:02:28.680Z,98938.53
2024-03-10T15:04:55.480Z,98935.16
2024-03-10T15:07:24.307Z,98940.84
2024-03-10T15:09:51.065Z,98940.50
2024-03-10T15:12:17.900Z,98933.97
2024-03-10T15:14:47.950Z,98936.47
2024-03-10T15:17:15.857Z,98943.00
2024-03-10T15:19:42.664Z,98941.47
2024-03-10T15:22:09.491Z,98940.44
2024-03-10T15:24:37.984Z,98942.44
2024-03-10T15:27:08.095Z,98943.75
2024-03-10T15:29:36.117Z,98944.13
2024-03-10T15:32:04.138Z,98951.38
2024-03-10T15:34:31.923Z,98949.72
2024-03-10T15:37:00.686Z,98951.72
2024-03-10T15:39:29.733Z,98961.56
2024-03-10T15:41:58.166Z,98961.38
2024-03-10T15:44:29.140Z,98960.22
2024-03-10T15:46:57.762Z,98972.19
2024-03-10T15:49:24.514Z,98980.69
2024-03-10T15:51:51.656Z,98984.53
2024-03-10T15:54:18.434Z,98991.72
2024-03-10T15:56:45.285Z,98990.19
2024-03-10T15:59:12.154Z,98986.63
2024-03-10T16:01:39.455Z,98978.59
2024-03-10T16:04:08.114Z,98988.22
2024-03-10T16:06:36.011Z,98996.88
2024-03-10T16:09:05.768Z,98994.81
2024-03-10T16:11:34.044Z,98991.47
2024-03-10T16:14:07.291Z,98985.41
2024-03-10T16:16:34.406Z,98988.56
2024-03-10T16:19:01.098Z,98989.47
2024-03-10T16:21:32.619Z,98987.78
2024-03-10T16:23:59.410Z,98991.41
2024-03-10T16:26:26.593Z,98987.22
2024-03-10T16:28:53.350Z,98987.69
2024-03-10T16:31:20.210Z,98980.38
2024-03-10T16:33:47.198Z,98995.44
2024-03-10T16:36:14.253Z,99007.78
2024-03-10T16:38:44.730Z,98995.34
2024-03-10T16:41:12.576Z,98992.44
2024-03-10T16:43:39.943Z,98995.97
2024-03-10T16:46:07.504Z,99006.94
2024-03-10T16:48:34.647Z,99004.66
2024-03-10T16:51:01.637Z,99019.72
2024-03-10T16:53:28.523Z,99017.22
2024-03-10T16:55:56.490Z,99020.31
2024-03-10T16:58:24.147Z,99026.81
2024-03-10T17:00:52.208Z,99036.63
2024-03-10T17:03:19.094Z,99036.91
2024-03-10T17:05:46.097Z,99039.53
2024-03-10T17:08:18.367Z,99035.78
2024-03-10T17:10:48.408Z,99047.28
2024-03-10T17:13:15.473Z,99051.84
2024-03-10T17:15:43.725Z,99060.09
2024-03-10T17:18:10.682Z,99056.84
2024-03-10T17:20:37.888Z,99060.94
2024-03-10T17:23:04.995Z,99066.41
2024-03-10T17:25:31.873Z,99070.75
2024-03-10T17:27:59.292Z,99071.06
2024-03-10T17:30:26.146Z,99073.72
2024-03-10T17:32:55.136Z,99083.28
2024-03-10T17:35:22.604Z,99084.16
2024-03-10T17:37:49.609Z,99086.16
2024-03-10T17:40:16.940Z,99097.78
2024-03-10T17:42:44.546Z,99103.78
2024-03-10T17:45:13.044Z,99109.09
2024-03-10T17:47:40.513Z,99110.50
2024-03-10T17:50:09.344Z,99102.13
2024-03-10T17:52:37.061Z,99109.03
2024-03-10T17:55:08.020Z,99110.00
2024-03-10T17:57:36.530Z,99104.28
2024-03-10T18:00:08.314Z,99102.47
2024-03-10T18:02:35.882Z,99106.94
2024-03-10T18:05:05.248Z,99097.25
2024-03-10T18:07:32.923Z,99101.50
2024-03-10T18:10:00.600Z,99105.84
2024-03-10T18:12:27.682Z,99099.81
2024-03-10T18:14:55.135Z,99094.22
2024-03-10T18:17:22.458Z,99095.19
2024-03-10T18:19:51.051Z,99095.19
2024-03-10T18:22:17.966Z,99095.19
2024-03-10T18:24:45.617Z,99103.03
2024-03-10T18:27:13.257Z,99093.50
2024-03-10T18:29:43.096Z,99095.31
2024-03-10T18:32:09.987Z,99097.84
2024-03-10T18:34:36.827Z,99090.03
2024-03-10T18:37:05.449Z,99091.03
2024-03-10T18:39:34.198Z,99106.28
2024-03-10T18:42:02.170Z,99094.53
2024-03-10T18:44:29.210Z,99098.44
2024-03-10T18:46:56.297Z,99091.28
2024-03-10T18:49:25.431Z,99090.75
2024-03-10T18:51:52.180Z,99094.53
2024-03-10T18:54:19.515Z,99090.31
2024-03-10T18:56:46.789Z,99095.38
2024-03-10T18:59:14.109Z,99092.84
2024-03-10T19:01:42.692Z,99098.03
2024-03-10T19:04:12.851Z,99098.56
2024-03-10T19:06:39.712Z,99087.78
2024-03-10T19:09:09.933Z,99093.81
2024-03-10T19:11:36.998Z,99097.91
2024-03-10T19:14:05.611Z,99103.50
2024-03-10T19:16:32.498Z,99111.03
2024-03-10T19:18:59.279Z,99115.38
2024-03-10T19:21:26.698Z,99110.38
2024-03-10T19:23:53.634Z,99113.69
2024-03-10T19:26:20.541Z,99116.09
2024-03-10T19:28:48.305Z,99117.50
2024-03-10T19:31:15.135Z,99126.06
2024-03-10T19:33:41.998Z,99122.97
2024-03-10T19:36:12.245Z,99136.56
2024-03-10T19:38:39.326Z,99137.25
2024-03-10T19:41:06.179Z,99141.88
2024-03-10T19:43:32.995Z,99144.81
2024-03-10T19:46:00.102Z,99142.41
2024-03-10T19:48:26.879Z,99143.13
2024-03-10T19:50:55.081Z,99149.13
2024-03-10T19:53:23.444Z,99148.72
2024-03-10T19:55:52.312Z,99152.34
2024-03-10T19:58:19.585Z,99153.19
2024-03-10T20:00:48.745Z,99157.13
2024-03-10T20:03:16.151Z,99160.78
2024-03-10T20:05:46.441Z,99160.06
2024-03-10T20:08:16.733Z,99161.91
2024-03-10T20:10:43.648Z,99161.31
2024-03-10T20:13:13.336Z,99168.47
2024-03-10T20:15:40.150Z,99169.88
2024-03-10T20:18:07.222Z,99175.59
2024-03-10T20:20:34.880Z,99177.16
2024-03-10T20:23:02.025Z,99167.47
2024-03-10T20:25:29.373Z,99177.28
2024-03-10T20:28:00.241Z,99172.38
2024-03-10T20:30:31.723Z,99172.38
2024-03-10T20:32:59.491Z,99180.06
2024-03-10T20:35:28.257Z,99188.88
2024-03-10T20:37:56.424Z,99190.88
2024-03-10T20:40:23.300Z,99190.56
2024-03-10T20:42:50.097Z,99182.59
2024-03-10T20:45:16.985Z,99186.50
2024-03-10T20:47:47.115Z,99181.34
2024-03-10T20:50:15.764Z,99181.59
2024-03-10T20:52:43.947Z,99183.84
2024-03-10T20:55:12.371Z,99177.97
2024-03-10T20:57:40.168Z,99182.72
2024-03-10T21:00:11.715Z,99188.59
2024-03-10T21:02:39.120Z,99191.25
2024-03-10T21:05:06.130Z,99194.63
2024-03-10T21:07:32.918Z,99196.56
2024-03-10T21:10:00.593Z,99190.28
2024-03-10T21:12:27.446Z,99191.25
2024-03-10T21:14:54.274Z,99193.50
2024-03-10T21:17:21.924Z,99204.13
2024-03-10T21:19:48.778Z,99206.78
2024-03-10T21:22:20.494Z,99212.53
2024-03-10T21:24:47.250Z,99211.81
2024-03-10T21:27:14.147Z,99206.50
2024-03-10T21:29:40.930Z,99213.63
2024-03-10T21:32:09.174Z,99212.91
2024-03-10T21:34:36.347Z,99219.78
2024-03-10T21:37:05.140Z,99215.03
2024-03-10T21:39:32.745Z,99217.25
2024-03-10T21:41:59.590Z,99210.84
2024-03-10T21:44:26.434Z,99208.56
2024-03-10T21:46:53.616Z,99213.44
2024-03-10T21:49:20.372Z,99202.25
2024-03-10T21:51:47.171Z,99199.03
2024-03-10T21:54:13.989Z,99193.03
2024-03-10T21:56:41.754Z,99204.06
2024-03-10T21:59:08.737Z,99210.25
2024-03-10T22:01:36.447Z,99213.06
2024-03-10T22:04:06.154Z,99215.00
2024-03-10T22:06:33.754Z,99210.94
2024-03-10T22:09:00.942Z,99208.97
2024-03-10T22:11:28.049Z,99216.66
2024-03-10T22:13:56.626Z,99201.13
2024-03-10T22:16:23.511Z,99212.31
2024-03-10T22:18:50.270Z,99212.06
2024-03-10T22:21:17.982Z,99216.69
2024-03-10T22:23:44.890Z,99213.31
2024-03-10T22:26:11.861Z,99219.00
2024-03-10T22:28:38.639Z,99219.28
2024-03-10T22:31:06.739Z,99224.72
2024-03-10T22:33:33.560Z,99227.25
2024-03-10T22:36:00.893Z,99231.00
2024-03-10T22:38:27.721Z,99238.59
2024-03-10T22:40:54.517Z,99233.97
2024-03-10T22:43:24.798Z,99229.25
2024-03-10T22:45:51.598Z,99240.13
2024-03-10T22:48:18.925Z,99235.94
2024-03-10T22:50:46.586Z,99229.19
2024-03-10T22:53:13.513Z,99233.28
2024-03-10T22:55:41.516Z,99236.19
2024-03-10T22:58:08.802Z,99232.69
2024-03-10T23:00:38.488Z,99227.06
2024-03-10T23:03:08.808Z,99229.88
2024-03-10T23:05:36.675Z,99230.31
2024-03-10T23:08:06.398Z,99235.66
2024-03-10T23:10:36.016Z,99233.22
2024-03-10T23:13:05.568Z,99234.50
2024-03-10T23:15:33.978Z,99226.94
2024-03-10T23:18:01.653Z,99230.16
2024-03-10T23:20:29.091Z,99235.06
2024-03-10T23:23:01.451Z,99225.97
2024-03-10T23:25:31.499Z,99229.44
2024-03-10T23:28:01.407Z,99236.97
2024-03-10T23:30:28.243Z,99237.56
2024-03-10T23:32:56.411Z,99239.75
2024-03-10T23:35:23.650Z,99249.25
2024-03-10T23:37:50.656Z,99246.75
2024-03-10T23:40:17.830Z,99254.56
2024-03-10T23:42:45.508Z,99252.66
2024-03-10T23:45:15.548Z,99252.38
2024-03-10T23:47:45.080Z,99260.09
2024-03-10T23:50:15.525Z,99256.09
2024-03-10T23:52:44.115Z,99255.66
2024-03-10T23:55:13.575Z,99262.03
2024-03-10T23:57:41.216Z,99269.31
